sensor_id;sensor_type;location;lat;lon;timestamp;pressure;altitude;pressure_sealevel;temperature;humidity
59513;BME280;45330;51.634;5.562;2023-03-16T00:00:43;101738.97;;;2.91;100.00
59513;BME280;45330;51.634;5.562;2023-03-16T00:03:10;101742.59;;;2.97;100.00
59513;BME280;45330;51.634;5.562;2023-03-16T00:05:36;101736.91;;;3.04;100.00
59513;BME280;45330;51.634;5.562;2023-03-16T00:08:02;101732.72;;;3.07;100.00
59513;BME280;45330;51.634;5.562;2023-03-16T00:10:27;101728.44;;;3.08;100.00
59513;BME280;45330;51.634;5.562;2023-03-16T00:12:53;101736.44;;;3.14;100.00
59513;BME280;45330;51.634;5.562;2023-03-16T00:15:19;101736.53;;;3.17;100.00
59513;BME280;45330;51.634;5.562;2023-03-16T00:17:45;101725.44;;;3.18;100.00
59513;BME280;45330;51.634;5.562;2023-03-16T00:20:13;101710.66;;;3.13;100.00
59513;BME280;45330;51.634;5.562;2023-03-16T00:22:39;101730.88;;;3.26;100.00
59513;BME280;45330;51.634;5.562;2023-03-16T00:25:06;101729.00;;;3.22;100.00
59513;BME280;45330;51.634;5.562;2023-03-16T00:27:32;101706.38;;;3.13;100.00
59513;BME280;45330;51.634;5.562;2023-03-16T00:29:58;101720.50;;;3.24;100.00
59513;BME280;45330;51.634;5.562;2023-03-16T00:32:31;101702.03;;;3.12;100.00
59513;BME280;45330;51.634;5.562;2023-03-16T00:34:58;101699.41;;;3.11;100.00
59513;BME280;45330;51.634;5.562;2023-03-16T00:37:25;101714.44;;;3.22;100.00
59513;BME280;45330;51.634;5.562;2023-03-16T00:39:51;101697.84;;;3.14;100.00
59513;BME280;45330;51.634;5.562;2023-03-16T00:42:20;101689.28;;;3.14;100.00
59513;BME280;45330;51.634;5.562;2023-03-16T00:44:48;101690.28;;;3.19;100.00
59513;BME280;45330;51.634;5.562;2023-03-16T00:47:13;101681.56;;;3.14;100.00
59513;BME280;45330;51.634;5.562;2023-03-16T00:49:40;101679.91;;;3.16;100.00
59513;BME280;45330;51.634;5.562;2023-03-16T00:52:08;101683.34;;;3.16;100.00
59513;BME280;45330;51.634;5.562;2023-03-16T00:54:34;101668.69;;;3.14;100.00
59513;BME280;45330;51.634;5.562;2023-03-16T00:57:00;101686.47;;;3.32;100.00
59513;BME280;45330;51.634;5.562;2023-03-16T00:59:26;101693.34;;;3.31;100.00
59513;BME280;45330;51.634;5.562;2023-03-16T01:01:52;101686.38;;;3.29;100.00
59513;BME280;45330;51.634;5.562;2023-03-16T01:04:18;101661.13;;;3.18;100.00
59513;BME280;45330;51.634;5.562;2023-03-16T01:06:44;101659.50;;;3.20;100.00
59513;BME280;45330;51.634;5.562;2023-03-16T01:09:10;101671.75;;;3.28;100.00
59513;BME280;45330;51.634;5.562;2023-03-16T01:11:36;101663.97;;;3.26;100.00
59513;BME280;45330;51.634;5.562;2023-03-16T01:14:02;101657.97;;;3.25;100.00
59513;BME280;45330;51.634;5.562;2023-03-16T01:16:28;101642.25;;;3.18;100.00
59513;BME280;45330;51.634;5.562;2023-03-16T01:18:54;101641.31;;;3.16;100.00
59513;BME280;45330;51.634;5.562;2023-03-16T01:21:21;101636.06;;;3.13;100.00
59513;BME280;45330;51.634;5.562;2023-03-16T01:23:47;101623.88;;;3.07;100.00
59513;BME280;45330;51.634;5.562;2023-03-16T01:26:12;101648.28;;;3.18;100.00
59513;BME280;45330;51.634;5.562;2023-03-16T01:28:40;101631.59;;;3.07;100.00
59513;BME280;45330;51.634;5.562;2023-03-16T01:31:08;101622.06;;;3.04;100.00
59513;BME280;45330;51.634;5.562;2023-03-16T01:33:34;101632.56;;;3.11;100.00
59513;BME280;45330;51.634;5.562;2023-03-16T01:36:09;101644.13;;;3.22;100.00
59513;BME280;45330;51.634;5.562;2023-03-16T01:38:35;101627.34;;;3.09;100.00
59513;BME280;45330;51.634;5.562;2023-03-16T01:41:01;101609.25;;;3.06;100.00
59513;BME280;45330;51.634;5.562;2023-03-16T01:43:29;101634.63;;;3.19;100.00
59513;BME280;45330;51.634;5.562;2023-03-16T01:48:54;101628.88;;;3.26;100.00
59513;BME280;45330;51.634;5.562;2023-03-16T01:51:40;101638.31;;;3.28;100.00
59513;BME280;45330;51.634;5.562;2023-03-16T01:54:13;101631.66;;;3.33;100.00
59513;BME280;45330;51.634;5.562;2023-03-16T01:56:51;101627.63;;;3.39;100.00
59513;BME280;45330;51.634;5.562;2023-03-16T01:59:20;101620.72;;;3.38;100.00
59513;BME280;45330;51.634;5.562;2023-03-16T02:01:48;101619.00;;;3.39;100.00
59513;BME280;45330;51.634;5.562;2023-03-16T02:04:27;101623.56;;;3.46;100.00
59513;BME280;45330;51.634;5.562;2023-03-16T02:06:54;101596.59;;;3.35;100.00
59513;BME280;45330;51.634;5.562;2023-03-16T02:09:21;101602.81;;;3.41;100.00
59513;BME280;45330;51.634;5.562;2023-03-16T02:11:48;101600.41;;;3.46;100.00
59513;BME280;45330;51.634;5.562;2023-03-16T02:14:14;101595.47;;;3.52;100.00
59513;BME280;45330;51.634;5.562;2023-03-16T02:16:40;101597.22;;;3.53;100.00
59513;BME280;45330;51.634;5.562;2023-03-16T02:19:10;101588.50;;;3.50;100.00
59513;BME280;45330;51.634;5.562;2023-03-16T02:22:01;101592.09;;;3.53;100.00
59513;BME280;45330;51.634;5.562;2023-03-16T02:24:28;101581.50;;;3.46;100.00
59513;BME280;45330;51.634;5.562;2023-03-16T02:27:06;101564.91;;;3.37;100.00
59513;BME280;45330;51.634;5.562;2023-03-16T02:32:20;101589.50;;;3.53;100.00
59513;BME280;45330;51.634;5.562;2023-03-16T02:34:47;101570.44;;;3.48;100.00
59513;BME280;45330;51.634;5.562;2023-03-16T02:37:12;101586.00;;;3.51;100.00
59513;BME280;45330;51.634;5.562;2023-03-16T02:39:38;101571.78;;;3.37;100.00
59513;BME280;45330;51.634;5.562;2023-03-16T02:42:03;101585.56;;;3.39;100.00
59513;BME280;45330;51.634;5.562;2023-03-16T02:44:32;101593.00;;;3.31;100.00
59513;BME280;45330;51.634;5.562;2023-03-16T02:47:02;101576.97;;;3.14;100.00
59513;BME280;45330;51.634;5.562;2023-03-16T02:49:36;101591.75;;;3.20;100.00
59513;BME280;45330;51.634;5.562;2023-03-16T02:52:04;101580.91;;;3.04;100.00
59513;BME280;45330;51.634;5.562;2023-03-16T02:54:29;101578.28;;;3.03;100.00
59513;BME280;45330;51.634;5.562;2023-03-16T02:56:54;101575.38;;;2.94;100.00
59513;BME280;45330;51.634;5.562;2023-03-16T02:59:20;101586.81;;;3.02;100.00
59513;BME280;45330;51.634;5.562;2023-03-16T03:01:46;101588.53;;;3.01;100.00
59513;BME280;45330;51.634;5.562;2023-03-16T03:04:11;101563.28;;;2.91;100.00
59513;BME280;45330;51.634;5.562;2023-03-16T03:06:37;101558.84;;;2.87;100.00
59513;BME280;45330;51.634;5.562;2023-03-16T03:09:03;101574.44;;;2.91;100.00
59513;BME280;45330;51.634;5.562;2023-03-16T03:11:29;101581.56;;;2.99;100.00
59513;BME280;45330;51.634;5.562;2023-03-16T03:13:55;101574.66;;;2.98;100.00
59513;BME280;45330;51.634;5.562;2023-03-16T03:16:20;101564.97;;;2.90;100.00
59513;BME280;45330;51.634;5.562;2023-03-16T03:18:46;101576.31;;;2.96;100.00
59513;BME280;45330;51.634;5.562;2023-03-16T03:21:12;101576.41;;;2.99;100.00
59513;BME280;45330;51.634;5.562;2023-03-16T03:23:38;101572.19;;;3.01;100.00
59513;BME280;45330;51.634;5.562;2023-03-16T03:26:04;101573.91;;;3.00;100.00
59513;BME280;45330;51.634;5.562;2023-03-16T03:28:29;101548.56;;;2.87;100.00
59513;BME280;45330;51.634;5.562;2023-03-16T03:30:55;101539.97;;;2.86;100.00
59513;BME280;45330;51.634;5.562;2023-03-16T03:33:21;101550.59;;;2.96;100.00
59513;BME280;45330;51.634;5.562;2023-03-16T03:35:47;101545.47;;;2.96;100.00
59513;BME280;45330;51.634;5.562;2023-03-16T03:38:17;101553.38;;;3.02;100.00
59513;BME280;45330;51.634;5.562;2023-03-16T03:40:42;101542.06;;;2.97;100.00
59513;BME280;45330;51.634;5.562;2023-03-16T03:43:08;101546.53;;;3.02;100.00
59513;BME280;45330;51.634;5.562;2023-03-16T03:45:33;101552.78;;;3.09;100.00
59513;BME280;45330;51.634;5.562;2023-03-16T03:47:58;101549.28;;;3.07;100.00
59513;BME280;45330;51.634;5.562;2023-03-16T03:50:24;101551.81;;;3.05;100.00
59513;BME280;45330;51.634;5.562;2023-03-16T03:52:50;101541.47;;;3.04;100.00
59513;BME280;45330;51.634;5.562;2023-03-16T03:55:15;101550.09;;;3.06;100.00
59513;BME280;45330;51.634;5.562;2023-03-16T03:57:40;101547.66;;;3.09;100.00
59513;BME280;45330;51.634;5.562;2023-03-16T04:00:07;101526.63;;;2.97;100.00
59513;BME280;45330;51.634;5.562;2023-03-16T04:02:36;101546.78;;;3.08;100.00
59513;BME280;45330;51.634;5.562;2023-03-16T04:05:01;101540.03;;;3.12;100.00
59513;BME280;45330;51.634;5.562;2023-03-16T04:07:27;101539.28;;;3.15;100.00
59513;BME280;45330;51.634;5.562;2023-03-16T04:09:52;101535.03;;;3.15;100.00
59513;BME280;45330;51.634;5.562;2023-03-16T04:12:18;101520.06;;;3.05;100.00
59513;BME280;45330;51.634;5.562;2023-03-16T04:14:43;101527.13;;;3.11;100.00
59513;BME280;45330;51.634;5.562;2023-03-16T04:17:08;101536.66;;;3.13;100.00
59513;BME280;45330;51.634;5.562;2023-03-16T04:19:34;101525.31;;;3.08;100.00
59513;BME280;45330;51.634;5.562;2023-03-16T04:21:59;101540.31;;;3.20;100.00
59513;BME280;45330;51.634;5.562;2023-03-16T04:24:25;101512.34;;;3.05;100.00
59513;BME280;45330;51.634;5.562;2023-03-16T04:26:50;101537.78;;;3.21;100.00
59513;BME280;45330;51.634;5.562;2023-03-16T04:29:18;101520.34;;;3.13;100.00
59513;BME280;45330;51.634;5.562;2023-03-16T04:31:44;101510.16;;;3.16;100.00
59513;BME280;45330;51.634;5.562;2023-03-16T04:34:10;101516.34;;;3.21;100.00
59513;BME280;45330;51.634;5.562;2023-03-16T04:36:37;101522.53;;;3.26;100.00
59513;BME280;45330;51.634;5.562;2023-03-16T04:39:06;101503.22;;;3.13;100.00
59513;BME280;45330;51.634;5.562;2023-03-16T04:41:31;101528.59;;;3.28;100.00
59513;BME280;45330;51.634;5.562;2023-03-16T04:43:57;101524.28;;;3.27;100.00
59513;BME280;45330;51.634;5.562;2023-03-16T04:46:23;101513.75;;;3.19;100.00
59513;BME280;45330;51.634;5.562;2023-03-16T04:48:50;101524.47;;;3.33;100.00
59513;BME280;45330;51.634;5.562;2023-03-16T04:51:16;101518.63;;;3.37;100.00
59513;BME280;45330;51.634;5.562;2023-03-16T04:53:41;101505.50;;;3.30;100.00
59513;BME280;45330;51.634;5.562;2023-03-16T04:56:07;101519.59;;;3.41;100.00
59513;BME280;45330;51.634;5.562;2023-03-16T04:58:32;101519.50;;;3.38;100.00
59513;BME280;45330;51.634;5.562;2023-03-16T05:00:58;101507.22;;;3.29;100.00
59513;BME280;45330;51.634;5.562;2023-03-16T05:03:24;101494.34;;;3.29;100.00
59513;BME280;45330;51.634;5.562;2023-03-16T05:05:49;101521.38;;;3.42;100.00
59513;BME280;45330;51.634;5.562;2023-03-16T05:08:15;101507.66;;;3.43;100.00
59513;BME280;45330;51.634;5.562;2023-03-16T05:10:41;101502.31;;;3.37;100.00
59513;BME280;45330;51.634;5.562;2023-03-16T05:13:06;101504.84;;;3.35;100.00
59513;BME280;45330;51.634;5.562;2023-03-16T05:15:32;101509.00;;;3.32;100.00
59513;BME280;45330;51.634;5.562;2023-03-16T05:17:57;101484.56;;;3.19;100.00
59513;BME280;45330;51.634;5.562;2023-03-16T05:20:23;101483.78;;;3.21;100.00
59513;BME280;45330;51.634;5.562;2023-03-16T05:22:49;101495.22;;;3.30;100.00
59513;BME280;45330;51.634;5.562;2023-03-16T05:25:16;101496.97;;;3.31;100.00
59513;BME280;45330;51.634;5.562;2023-03-16T05:27:46;101496.13;;;3.32;100.00
59513;BME280;45330;51.634;5.562;2023-03-16T05:30:14;101491.84;;;3.31;100.00
59513;BME280;45330;51.634;5.562;2023-03-16T05:32:40;101474.25;;;3.19;100.00
59513;BME280;45330;51.634;5.562;2023-03-16T05:35:06;101496.13;;;3.32;100.00
59513;BME280;45330;51.634;5.562;2023-03-16T05:37:32;101497.06;;;3.34;100.00
59513;BME280;45330;51.634;5.562;2023-03-16T05:39:59;101475.50;;;3.30;100.00
59513;BME280;45330;51.634;5.562;2023-03-16T05:42:24;101488.53;;;3.35;100.00
59513;BME280;45330;51.634;5.562;2023-03-16T05:44:52;101482.66;;;3.39;100.00
59513;BME280;45330;51.634;5.562;2023-03-16T05:47:19;101487.88;;;3.40;100.00
59513;BME280;45330;51.634;5.562;2023-03-16T05:49:46;101479.16;;;3.37;100.00
59513;BME280;45330;51.634;5.562;2023-03-16T05:52:11;101485.41;;;3.43;100.00
59513;BME280;45330;51.634;5.562;2023-03-16T05:54:36;101481.94;;;3.43;100.00
59513;BME280;45330;51.634;5.562;2023-03-16T05:57:02;101468.16;;;3.41;100.00
59513;BME280;45330;51.634;5.562;2023-03-16T05:59:28;101457.53;;;3.32;100.00
59513;BME280;45330;51.634;5.562;2023-03-16T06:01:53;101473.31;;;3.41;100.00
59513;BME280;45330;51.634;5.562;2023-03-16T06:04:18;101474.22;;;3.43;100.00
59513;BME280;45330;51.634;5.562;2023-03-16T06:06:44;101469.91;;;3.42;100.00
59513;BME280;45330;51.634;5.562;2023-03-16T06:09:09;101475.09;;;3.43;100.00
59513;BME280;45330;51.634;5.562;2023-03-16T06:11:34;101465.31;;;3.33;100.00
59513;BME280;45330;51.634;5.562;2023-03-16T06:14:00;101450.69;;;3.31;100.00
59513;BME280;45330;51.634;5.562;2023-03-16T06:16:26;101452.41;;;3.32;100.00
59513;BME280;45330;51.634;5.562;2023-03-16T06:18:52;101470.00;;;3.45;100.00
59513;BME280;45330;51.634;5.562;2023-03-16T06:21:17;101457.88;;;3.41;100.00
59513;BME280;45330;51.634;5.562;2023-03-16T06:23:42;101470.25;;;3.53;100.00
59513;BME280;45330;51.634;5.562;2023-03-16T06:26:08;101453.81;;;3.48;100.00
59513;BME280;45330;51.634;5.562;2023-03-16T06:28:33;101456.69;;;3.58;100.00
59513;BME280;45330;51.634;5.562;2023-03-16T06:30:59;101455.84;;;3.58;100.00
59513;BME280;45330;51.634;5.562;2023-03-16T06:33:26;101462.13;;;3.66;100.00
59513;BME280;45330;51.634;5.562;2023-03-16T06:35:51;101460.63;;;3.73;100.00
59513;BME280;45330;51.634;5.562;2023-03-16T06:38:18;101452.09;;;3.75;100.00
59513;BME280;45330;51.634;5.562;2023-03-16T06:40:43;101474.06;;;3.91;100.00
59513;BME280;45330;51.634;5.562;2023-03-16T06:43:08;101461.88;;;3.86;100.00
59513;BME280;45330;51.634;5.562;2023-03-16T06:45:34;101461.19;;;3.91;100.00
59513;BME280;45330;51.634;5.562;2023-03-16T06:47:59;101473.44;;;3.99;100.00
59513;BME280;45330;51.634;5.562;2023-03-16T06:50:25;101462.06;;;3.92;100.00
59513;BME280;45330;51.634;5.562;2023-03-16T06:52:51;101460.25;;;3.89;100.00
59513;BME280;45330;51.634;5.562;2023-03-16T06:55:16;101487.03;;;3.94;100.00
59513;BME280;45330;51.634;5.562;2023-03-16T06:57:42;101458.31;;;3.82;100.00
59513;BME280;45330;51.634;5.562;2023-03-16T07:00:09;101476.88;;;3.99;100.00
59513;BME280;45330;51.634;5.562;2023-03-16T07:02:36;101473.25;;;3.92;100.00
59513;BME280;45330;51.634;5.562;2023-03-16T07:05:04;101462.25;;;3.98;100.00
59513;BME280;45330;51.634;5.562;2023-03-16T07:07:30;101461.25;;;3.93;100.00
59513;BME280;45330;51.634;5.562;2023-03-16T07:09:55;101450.91;;;3.91;100.00
59513;BME280;45330;51.634;5.562;2023-03-16T07:12:21;101459.69;;;3.98;100.00
59513;BME280;45330;51.634;5.562;2023-03-16T07:14:46;101443.22;;;3.93;100.00
59513;BME280;45330;51.634;5.562;2023-03-16T07:17:12;101430.34;;;3.93;100.00
59513;BME280;45330;51.634;5.562;2023-03-16T07:19:37;101459.34;;;4.16;100.00
59513;BME280;45330;51.634;5.562;2023-03-16T07:22:03;101451.88;;;4.24;100.00
59513;BME280;45330;51.634;5.562;2023-03-16T07:24:28;101452.06;;;4.32;100.00
59513;BME280;45330;51.634;5.562;2023-03-16T07:26:53;101442.75;;;4.35;100.00
59513;BME280;45330;51.634;5.562;2023-03-16T07:29:19;101434.97;;;4.34;100.00
59513;BME280;45330;51.634;5.562;2023-03-16T07:31:44;101437.88;;;4.44;100.00
59513;BME280;45330;51.634;5.562;2023-03-16T07:34:10;101457.13;;;4.57;100.00
59513;BME280;45330;51.634;5.562;2023-03-16T07:36:36;101438.81;;;4.48;100.00
59513;BME280;45330;51.634;5.562;2023-03-16T07:39:02;101451.31;;;4.64;100.00
59513;BME280;45330;51.634;5.562;2023-03-16T07:41:27;101434.00;;;4.60;100.00
59513;BME280;45330;51.634;5.562;2023-03-16T07:43:53;101434.06;;;4.62;100.00
59513;BME280;45330;51.634;5.562;2023-03-16T07:46:19;101448.16;;;4.75;100.00
59513;BME280;45330;51.634;5.562;2023-03-16T07:48:45;101449.09;;;4.77;100.00
59513;BME280;45330;51.634;5.562;2023-03-16T07:51:11;101447.41;;;4.79;100.00
59513;BME280;45330;51.634;5.562;2023-03-16T07:53:38;101450.06;;;4.82;100.00
59513;BME280;45330;51.634;5.562;2023-03-16T07:56:04;101446.66;;;4.83;100.00
59513;BME280;45330;51.634;5.562;2023-03-16T07:58:30;101448.41;;;4.84;100.00
59513;BME280;45330;51.634;5.562;2023-03-16T08:00:57;101431.91;;;4.77;100.00
59513;BME280;45330;51.634;5.562;2023-03-16T08:03:23;101416.31;;;4.73;100.00
59513;BME280;45330;51.634;5.562;2023-03-16T08:05:49;101428.75;;;4.89;100.00
59513;BME280;45330;51.634;5.562;2023-03-16T08:08:15;101435.94;;;5.00;100.00
59513;BME280;45330;51.634;5.562;2023-03-16T08:10:41;101420.38;;;4.96;100.00
59513;BME280;45330;51.634;5.562;2023-03-16T08:13:06;101425.97;;;5.13;100.00
59513;BME280;45330;51.634;5.562;2023-03-16T08:15:32;101419.00;;;5.09;100.00
59513;BME280;45330;51.634;5.562;2023-03-16T08:17:58;101429.81;;;5.29;100.00
59513;BME280;45330;51.634;5.562;2023-03-16T08:20:26;101430.13;;;5.42;100.00
59513;BME280;45330;51.634;5.562;2023-03-16T08:22:52;101418.81;;;5.38;100.00
59513;BME280;45330;51.634;5.562;2023-03-16T08:25:17;101434.13;;;5.65;100.00
59513;BME280;45330;51.634;5.562;2023-03-16T08:27:44;101424.91;;;5.77;100.00
59513;BME280;45330;51.634;5.562;2023-03-16T08:30:11;101428.75;;;5.94;100.00
59513;BME280;45330;51.634;5.562;2023-03-16T08:32:37;101442.06;;;6.11;100.00
59513;BME280;45330;51.634;5.562;2023-03-16T08:35:07;101441.31;;;6.17;100.00
59513;BME280;45330;51.634;5.562;2023-03-16T08:37:34;101443.84;;;6.14;100.00
59513;BME280;45330;51.634;5.562;2023-03-16T08:39:59;101445.59;;;6.15;100.00
59513;BME280;45330;51.634;5.562;2023-03-16T08:42:25;101437.88;;;6.16;100.00
59513;BME280;45330;51.634;5.562;2023-03-16T08:44:53;101445.91;;;6.29;100.00
59513;BME280;45330;51.634;5.562;2023-03-16T08:47:20;101433.06;;;6.33;100.00
59513;BME280;45330;51.634;5.562;2023-03-16T08:49:46;101445.59;;;6.56;100.00
59513;BME280;45330;51.634;5.562;2023-03-16T08:52:11;101433.50;;;6.55;100.00
59513;BME280;45330;51.634;5.562;2023-03-16T08:54:37;101440.63;;;6.67;100.00
59513;BME280;45330;51.634;5.562;2023-03-16T08:57:03;101437.41;;;6.79;100.00
59513;BME280;45330;51.634;5.562;2023-03-16T08:59:29;101434.25;;;6.94;100.00
59513;BME280;45330;51.634;5.562;2023-03-16T09:01:54;101434.38;;;7.01;100.00
59513;BME280;45330;51.634;5.562;2023-03-16T09:04:20;101413.72;;;7.04;100.00
59513;BME280;45330;51.634;5.562;2023-03-16T09:06:46;101417.47;;;7.22;100.00
59513;BME280;45330;51.634;5.562;2023-03-16T09:09:12;101419.38;;;7.34;100.00
59513;BME280;45330;51.634;5.562;2023-03-16T09:11:37;101424.69;;;7.40;100.00
59513;BME280;45330;51.634;5.562;2023-03-16T09:14:03;101395.03;;;7.21;100.00
59513;BME280;45330;51.634;5.562;2023-03-16T09:16:28;101402.75;;;7.19;100.00
59513;BME280;45330;51.634;5.562;2023-03-16T09:18:55;101421.84;;;7.25;100.00
59513;BME280;45330;51.634;5.562;2023-03-16T09:21:21;101410.75;;;7.32;100.00
59513;BME280;45330;51.634;5.562;2023-03-16T09:23:47;101401.94;;;7.22;100.00
59513;BME280;45330;51.634;5.562;2023-03-16T09:26:13;101416.72;;;7.28;100.00
59513;BME280;45330;51.634;5.562;2023-03-16T09:28:40;101410.81;;;7.36;100.00
59513;BME280;45330;51.634;5.562;2023-03-16T09:31:07;101393.59;;;7.38;100.00
59513;BME280;45330;51.634;5.562;2023-03-16T09:33:34;101397.25;;;7.53;100.00
59513;BME280;45330;51.634;5.562;2023-03-16T09:36:00;101413.13;;;7.75;100.00
59513;BME280;45330;51.634;5.562;2023-03-16T09:38:26;101386.59;;;7.91;100.00
59513;BME280;45330;51.634;5.562;2023-03-16T09:40:57;101403.47;;;8.26;100.00
59513;BME280;45330;51.634;5.562;2023-03-16T09:46:35;101416.09;;;8.70;100.00
59513;BME280;45330;51.634;5.562;2023-03-16T09:49:03;101397.09;;;8.71;100.00
59513;BME280;45330;51.634;5.562;2023-03-16T09:51:40;101391.81;;;8.63;100.00
59513;BME280;45330;51.634;5.562;2023-03-16T09:54:30;101395.34;;;8.70;100.00
59513;BME280;45330;51.634;5.562;2023-03-16T09:56:59;101409.25;;;8.78;100.00
59513;BME280;45330;51.634;5.562;2023-03-16T09:59:25;101386.75;;;8.75;100.00
59513;BME280;45330;51.634;5.562;2023-03-16T10:04:48;101390.41;;;8.96;100.00
59513;BME280;45330;51.634;5.562;2023-03-16T10:07:37;101365.22;;;8.87;100.00
59513;BME280;45330;51.634;5.562;2023-03-16T10:12:41;101379.75;;;8.68;100.00
59513;BME280;45330;51.634;5.562;2023-03-16T10:15:21;101363.13;;;8.51;100.00
59513;BME280;45330;51.634;5.562;2023-03-16T10:17:51;101373.59;;;8.57;100.00
59513;BME280;45330;51.634;5.562;2023-03-16T10:20:21;101364.94;;;8.56;100.00
59513;BME280;45330;51.634;5.562;2023-03-16T10:22:50;101362.44;;;8.66;100.00
59513;BME280;45330;51.634;5.562;2023-03-16T10:28:03;101366.94;;;8.82;100.00
59513;BME280;45330;51.634;5.562;2023-03-16T10:30:34;101369.50;;;8.78;100.00
59513;BME280;45330;51.634;5.562;2023-03-16T10:33:17;101374.72;;;8.85;100.00
59513;BME280;45330;51.634;5.562;2023-03-16T10:43:45;101343.03;;;9.23;100.00
59513;BME280;45330;51.634;5.562;2023-03-16T10:46:11;101353.56;;;9.45;98.37
59513;BME280;45330;51.634;5.562;2023-03-16T10:48:37;101361.44;;;9.59;97.73
59513;BME280;45330;51.634;5.562;2023-03-16T10:51:07;101350.22;;;9.65;97.19
59513;BME280;45330;51.634;5.562;2023-03-16T10:53:39;101337.28;;;9.69;96.48
59513;BME280;45330;51.634;5.562;2023-03-16T10:56:19;101341.66;;;9.83;97.39
59513;BME280;45330;51.634;5.562;2023-03-16T10:58:45;101337.44;;;10.05;93.45
59513;BME280;45330;51.634;5.562;2023-03-16T11:01:21;101326.19;;;10.18;93.78
59513;BME280;45330;51.634;5.562;2023-03-16T11:03:50;101326.31;;;10.35;89.74
59513;BME280;45330;51.634;5.562;2023-03-16T11:06:20;101339.34;;;10.63;86.94
59513;BME280;45330;51.634;5.562;2023-03-16T11:08:47;101315.94;;;10.64;85.17
59513;BME280;45330;51.634;5.562;2023-03-16T11:11:16;101313.38;;;10.81;85.00
59513;BME280;45330;51.634;5.562;2023-03-16T11:13:44;101332.44;;;11.02;83.36
59513;BME280;45330;51.634;5.562;2023-03-16T11:16:23;101322.03;;;11.14;79.75
59513;BME280;45330;51.634;5.562;2023-03-16T11:18:54;101306.41;;;11.18;80.86
59513;BME280;45330;51.634;5.562;2023-03-16T11:23:54;101294.22;;;11.26;77.70
59513;BME280;45330;51.634;5.562;2023-03-16T11:26:26;101293.34;;;11.35;77.61
59513;BME280;45330;51.634;5.562;2023-03-16T11:28:59;101297.63;;;11.65;77.08
59513;BME280;45330;51.634;5.562;2023-03-16T11:31:38;101284.53;;;11.79;76.89
59513;BME280;45330;51.634;5.562;2023-03-16T11:34:18;101291.47;;;11.80;75.39
59513;BME280;45330;51.634;5.562;2023-03-16T11:37:42;101290.59;;;11.86;75.04
59513;BME280;45330;51.634;5.562;2023-03-16T11:42:26;101280.13;;;11.92;72.98
59513;BME280;45330;51.634;5.562;2023-03-16T11:45:15;101279.28;;;11.94;73.98
59513;BME280;45330;51.634;5.562;2023-03-16T11:48:06;101280.16;;;11.95;72.93
59513;BME280;45330;51.634;5.562;2023-03-16T11:51:14;101267.03;;;12.07;71.87
59513;BME280;45330;51.634;5.562;2023-03-16T11:54:39;101269.59;;;12.16;72.32
59513;BME280;45330;51.634;5.562;2023-03-16T11:56:59;101268.63;;;12.31;72.61
59513;BME280;45330;51.634;5.562;2023-03-16T12:02:26;101253.91;;;12.24;70.74
59513;BME280;45330;51.634;5.562;2023-03-16T12:11:09;101258.34;;;12.10;66.66
59513;BME280;45330;51.634;5.562;2023-03-16T12:19:25;101236.56;;;12.15;67.84
59513;BME280;45330;51.634;5.562;2023-03-16T12:24:47;101212.25;;;12.07;67.17
59513;BME280;45330;51.634;5.562;2023-03-16T12:27:39;101222.63;;;12.15;67.91
59513;BME280;45330;51.634;5.562;2023-03-16T12:30:11;101222.63;;;12.16;67.03
59513;BME280;45330;51.634;5.562;2023-03-16T12:32:48;101219.19;;;12.13;67.76
59513;BME280;45330;51.634;5.562;2023-03-16T12:48:44;101182.75;;;12.00;65.99
59513;BME280;45330;51.634;5.562;2023-03-16T12:51:12;101161.91;;;11.96;63.81
59513;BME280;45330;51.634;5.562;2023-03-16T12:53:46;101174.84;;;12.13;65.59
59513;BME280;45330;51.634;5.562;2023-03-16T12:56:31;101179.09;;;12.25;63.97
59513;BME280;45330;51.634;5.562;2023-03-16T12:58:59;101169.50;;;12.30;63.09
59513;BME280;45330;51.634;5.562;2023-03-16T13:01:27;101166.84;;;12.33;61.54
59513;BME280;45330;51.634;5.562;2023-03-16T13:04:32;101154.66;;;12.35;62.37
59513;BME280;45330;51.634;5.562;2023-03-16T13:07:14;101169.44;;;12.34;60.48
59513;BME280;45330;51.634;5.562;2023-03-16T13:09:41;101164.22;;;12.39;62.51
59513;BME280;45330;51.634;5.562;2023-03-16T13:12:08;101157.28;;;12.35;57.99
59513;BME280;45330;51.634;5.562;2023-03-16T13:14:42;101135.53;;;12.33;59.00
59513;BME280;45330;51.634;5.562;2023-03-16T13:19:40;101129.41;;;12.39;58.11
59513;BME280;45330;51.634;5.562;2023-03-16T13:25:16;101136.22;;;12.55;57.13
59513;BME280;45330;51.634;5.562;2023-03-16T13:27:47;101130.13;;;12.51;57.30
59513;BME280;45330;51.634;5.562;2023-03-16T13:30:15;101147.44;;;12.65;57.12
59513;BME280;45330;51.634;5.562;2023-03-16T13:32:42;101144.75;;;12.69;55.81
59513;BME280;45330;51.634;5.562;2023-03-16T13:35:12;101136.91;;;12.71;56.83
59513;BME280;45330;51.634;5.562;2023-03-16T13:37:41;101111.78;;;12.62;56.58
59513;BME280;45330;51.634;5.562;2023-03-16T13:40:22;101115.16;;;12.70;57.26
59513;BME280;45330;51.634;5.562;2023-03-16T13:42:49;101115.22;;;12.67;55.81
59513;BME280;45330;51.634;5.562;2023-03-16T13:45:23;101094.44;;;12.55;56.39
59513;BME280;45330;51.634;5.562;2023-03-16T13:47:52;101099.59;;;12.60;55.85
59513;BME280;45330;51.634;5.562;2023-03-16T13:50:18;101101.25;;;12.70;57.19
59513;BME280;45330;51.634;5.562;2023-03-16T13:53:09;101100.28;;;12.79;57.77
59513;BME280;45330;51.634;5.562;2023-03-16T13:55:37;101090.66;;;12.82;55.98
59513;BME280;45330;51.634;5.562;2023-03-16T13:58:03;101079.47;;;12.71;55.11
59513;BME280;45330;51.634;5.562;2023-03-16T14:00:36;101069.03;;;12.69;56.08
59513;BME280;45330;51.634;5.562;2023-03-16T14:03:17;101087.28;;;12.74;56.92